Time;durP1;ratioP1;P1;durP2;ratioP2;P2;SDS_P1;SDS_P2;PMS_P1;PMS_P2;Temp;Humidity;BMP_temperature;BMP_pressure;BME280_temperature;BME280_humidity;BME280_pressure;Samples;Min_cycle;Max_cycle;Signal;HPM_P1;HPM_P2
2023/08/14 00:01:48;;;;;;;4.60;3.28;;;18.30;99.90;;;;;;6185778;23;20015;-81
2023/08/14 00:04:13;;;;;;;3.97;3.25;;;18.30;99.90;;;;;;6211333;23;20009;-81
2023/08/14 00:06:39;;;;;;;6.22;3.78;;;18.30;99.90;;;;;;6212196;23;20071;-81
2023/08/14 00:09:04;;;;;;;4.32;3.33;;;18.30;99.90;;;;;;6211984;23;20005;-82
2023/08/14 00:11:30;;;;;;;4.53;4.13;;;18.20;99.90;;;;;;6211848;23;20012;-81
2023/08/14 00:13:56;;;;;;;4.63;3.75;;;18.30;99.90;;;;;;6211929;23;20103;-82
2023/08/14 00:16:23;;;;;;;4.88;3.75;;;18.20;99.90;;;;;;6211674;23;20013;-81
2023/08/14 00:18:49;;;;;;;5.25;3.60;;;18.20;99.90;;;;;;6211613;23;20079;-82
2023/08/14 00:21:14;;;;;;;6.63;4.38;;;18.20;99.90;;;;;;6212148;23;20078;-81
2023/08/14 00:23:40;;;;;;;4.60;4.00;;;18.20;99.90;;;;;;6212098;23;20008;-81
2023/08/14 00:26:06;;;;;;;3.63;3.28;;;18.20;99.90;;;;;;6211641;23;20000;-81
2023/08/14 00:28:32;;;;;;;4.78;3.78;;;18.20;99.90;;;;;;6211589;23;20001;-81
2023/08/14 00:30:57;;;;;;;6.07;4.28;;;18.20;99.90;;;;;;6212223;23;20078;-81
2023/08/14 00:33:23;;;;;;;5.47;4.13;;;18.10;99.90;;;;;;6210802;23;20322;-81
2023/08/14 00:35:48;;;;;;;5.20;4.60;;;18.10;99.90;;;;;;6212060;23;20001;-81
2023/08/14 00:38:14;;;;;;;4.63;4.15;;;18.10;99.90;;;;;;6211637;23;20000;-80
2023/08/14 00:40:40;;;;;;;5.95;4.00;;;18.10;99.90;;;;;;6211847;23;20004;-81
2023/08/14 00:43:05;;;;;;;4.45;3.97;;;18.10;99.90;;;;;;6210990;23;20004;-81
2023/08/14 00:45:31;;;;;;;4.43;4.03;;;18.00;99.90;;;;;;6211511;23;20071;-80
2023/08/14 00:47:57;;;;;;;5.00;3.40;;;18.00;99.90;;;;;;6211586;23;19997;-81
2023/08/14 00:50:23;;;;;;;5.07;3.80;;;18.00;99.90;;;;;;6211711;23;20009;-82
2023/08/14 00:52:52;;;;;;;3.97;3.58;;;17.90;99.90;;;;;;6211931;23;20000;-81
2023/08/14 00:55:22;;;;;;;5.75;3.88;;;17.90;99.90;;;;;;6210852;23;20136;-81
2023/08/14 00:57:51;;;;;;;4.45;3.92;;;17.90;99.90;;;;;;6211631;23;20383;-81
2023/08/14 01:00:16;;;;;;;6.15;4.03;;;17.90;99.90;;;;;;6184674;23;20426;-81
2023/08/14 01:02:43;;;;;;;5.53;3.95;;;17.80;99.90;;;;;;6184545;23;20062;-82
2023/08/14 01:05:09;;;;;;;5.93;4.97;;;17.80;99.90;;;;;;6211659;23;20001;-82
2023/08/14 01:07:35;;;;;;;5.18;4.20;;;17.80;99.90;;;;;;6211449;23;20015;-81
2023/08/14 01:10:02;;;;;;;4.72;4.20;;;17.70;99.90;;;;;;6211949;23;19997;-82
2023/08/14 01:12:50;;;;;;;4.20;3.80;;;17.70;99.90;;;;;;6211430;23;20079;-81
2023/08/14 01:15:34;;;;;;;6.68;4.55;;;17.70;99.90;;;;;;6211350;23;20007;-81
2023/08/14 01:18:02;;;;;;;4.32;3.92;;;17.70;99.90;;;;;;6211837;23;20012;-82
2023/08/14 01:20:30;;;;;;;4.28;3.88;;;17.70;99.90;;;;;;6211502;23;20005;-82
2023/08/14 01:23:06;;;;;;;5.68;4.22;;;17.70;99.90;;;;;;6212039;23;20008;-81
2023/08/14 01:25:34;;;;;;;7.13;3.75;;;17.70;99.90;;;;;;6184261;23;20378;-81
2023/08/14 01:28:01;;;;;;;4.80;4.32;;;17.60;99.90;;;;;;6211752;23;20000;-81
2023/08/14 01:30:27;;;;;;;4.97;3.50;;;17.60;99.90;;;;;;6210718;23;20001;-82
2023/08/14 01:32:54;;;;;;;5.28;4.18;;;17.60;99.90;;;;;;6211580;23;20088;-81
2023/08/14 01:35:22;;;;;;;4.70;4.03;;;17.60;99.90;;;;;;6210914;23;20001;-82
2023/08/14 01:38:24;;;;;;;5.30;4.80;;;17.60;99.90;;;;;;6211490;23;20175;-81
2023/08/14 01:41:06;;;;;;;5.35;4.45;;;17.60;99.90;;;;;;6211372;23;20004;-81
2023/08/14 01:43:37;;;;;;;4.78;3.90;;;17.60;99.90;;;;;;6211214;23;20004;-82
2023/08/14 01:46:03;;;;;;;4.80;3.92;;;17.50;99.90;;;;;;6210775;23;20008;-82
2023/08/14 01:48:30;;;;;;;5.05;4.05;;;17.50;99.90;;;;;;6211151;23;20060;-82
2023/08/14 01:50:57;;;;;;;5.00;4.53;;;17.50;99.90;;;;;;6211376;23;20277;-82
2023/08/14 01:53:23;;;;;;;6.72;4.80;;;17.50;99.90;;;;;;6211086;23;20075;-82
2023/08/14 01:55:49;;;;;;;6.97;5.72;;;17.40;99.90;;;;;;6210980;23;20017;-82
2023/08/14 01:58:14;;;;;;;6.47;5.40;;;17.40;99.90;;;;;;6211163;23;20375;-82
2023/08/14 02:00:40;;;;;;;7.45;5.75;;;17.40;99.90;;;;;;6210819;23;20054;-82
2023/08/14 02:03:06;;;;;;;8.43;6.18;;;17.40;99.90;;;;;;6211277;23;20008;-81
2023/08/14 02:05:31;;;;;;;6.82;5.38;;;17.40;99.90;;;;;;6207523;23;20040;-81
2023/08/14 02:07:57;;;;;;;8.80;6.22;;;17.30;99.90;;;;;;6207504;23;20075;-83
2023/08/14 02:10:23;;;;;;;6.72;6.07;;;17.30;99.90;;;;;;6182321;23;20071;-82
2023/08/14 02:12:48;;;;;;;7.38;6.22;;;17.30;99.90;;;;;;6210225;23;20001;-82
2023/08/14 02:15:14;;;;;;;7.25;6.55;;;17.30;99.90;;;;;;6210081;23;20004;-82
2023/08/14 02:17:40;;;;;;;9.00;6.47;;;17.30;99.90;;;;;;6211209;23;20008;-82
2023/08/14 02:20:06;;;;;;;7.20;6.45;;;17.30;99.90;;;;;;6210960;23;20334;-81
2023/08/14 02:22:31;;;;;;;6.85;6.15;;;17.30;99.90;;;;;;6211320;23;20004;-81
2023/08/14 02:24:57;;;;;;;6.40;5.80;;;17.30;99.90;;;;;;6213592;23;20017;-82
2023/08/14 02:27:23;;;;;;;9.02;7.03;;;17.30;99.90;;;;;;6212735;23;20283;-82
2023/08/14 02:29:48;;;;;;;6.47;5.88;;;17.20;99.90;;;;;;6186143;23;20067;-81
2023/08/14 02:32:14;;;;;;;8.32;6.45;;;17.30;99.90;;;;;;6186429;23;20007;-83
2023/08/14 02:34:44;;;;;;;9.20;6.60;;;17.20;99.90;;;;;;6213159;23;20461;-82
2023/08/14 02:37:11;;;;;;;9.75;7.28;;;17.20;99.90;;;;;;6213090;23;20072;-83
2023/08/14 02:39:37;;;;;;;6.53;5.88;;;17.20;99.90;;;;;;6212971;23;20422;-82
2023/08/14 02:42:03;;;;;;;7.60;6.90;;;17.20;99.90;;;;;;6213076;23;20127;-82
2023/08/14 02:44:29;;;;;;;8.57;6.53;;;17.20;99.90;;;;;;6212331;23;20307;-81
2023/08/14 02:46:55;;;;;;;8.85;8.02;;;17.20;99.90;;;;;;6213105;23;20003;-82
2023/08/14 02:49:20;;;;;;;8.70;7.90;;;17.20;99.90;;;;;;6212508;23;20419;-82
2023/08/14 02:51:46;;;;;;;9.90;7.20;;;17.20;99.90;;;;;;6213019;23;20004;-82
2023/08/14 02:54:11;;;;;;;9.05;7.38;;;17.20;99.90;;;;;;6212608;23;20008;-82
2023/08/14 02:56:37;;;;;;;9.73;8.73;;;17.20;99.90;;;;;;6212631;23;20356;-82
2023/08/14 02:59:03;;;;;;;10.82;9.75;;;17.20;99.90;;;;;;6185957;23;20055;-82
2023/08/14 03:01:29;;;;;;;10.73;8.45;;;17.20;99.90;;;;;;6212784;23;20272;-82
2023/08/14 03:03:55;;;;;;;8.73;7.95;;;17.20;99.90;;;;;;6212907;23;20076;-82
2023/08/14 03:06:20;;;;;;;12.00;9.35;;;17.10;99.90;;;;;;6212538;23;20003;-82
2023/08/14 03:08:46;;;;;;;10.23;8.20;;;17.10;99.90;;;;;;6212918;23;20569;-82
2023/08/14 03:11:11;;;;;;;9.07;8.13;;;17.10;99.90;;;;;;6212744;23;20032;-82
2023/08/14 03:13:37;;;;;;;9.10;8.23;;;17.10;99.90;;;;;;6185383;23;20032;-83
2023/08/14 03:16:03;;;;;;;9.82;8.93;;;17.10;99.90;;;;;;6212883;23;20457;-83
2023/08/14 03:18:28;;;;;;;12.30;10.85;;;17.10;99.90;;;;;;6212730;23;20048;-84
2023/08/14 03:20:54;;;;;;;13.23;10.88;;;17.00;99.90;;;;;;6212094;23;20051;-82
2023/08/14 03:23:19;;;;;;;10.55;9.52;;;17.00;99.90;;;;;;6212521;23;20058;-82
2023/08/14 03:25:45;;;;;;;11.55;10.30;;;17.00;99.90;;;;;;6186081;23;20031;-82
2023/08/14 03:28:11;;;;;;;13.40;10.88;;;17.00;99.90;;;;;;6212087;23;20012;-83
2023/08/14 03:30:41;;;;;;;14.52;10.27;;;17.00;99.90;;;;;;6212439;23;20007;-83
2023/08/14 03:33:07;;;;;;;11.75;9.90;;;17.00;99.90;;;;;;6212728;23;19996;-82
2023/08/14 03:35:32;;;;;;;11.55;10.35;;;17.00;99.90;;;;;;6212272;23;20082;-82
2023/08/14 03:37:58;;;;;;;10.55;9.32;;;17.00;99.90;;;;;;6212882;23;20066;-83
2023/08/14 03:40:24;;;;;;;12.80;10.57;;;17.00;99.90;;;;;;6185142;23;20036;-83
2023/08/14 03:42:49;;;;;;;11.40;9.85;;;17.00;99.90;;;;;;6212545;23;20393;-83
2023/08/14 03:45:15;;;;;;;12.57;9.95;;;16.90;99.90;;;;;;6212079;23;20005;-82
2023/08/14 03:47:40;;;;;;;15.00;12.95;;;16.90;99.90;;;;;;6212563;23;20423;-82
2023/08/14 03:50:06;;;;;;;14.10;12.80;;;16.90;99.90;;;;;;6212217;23;20031;-82
2023/08/14 03:52:32;;;;;;;12.15;10.68;;;16.90;99.90;;;;;;6212013;23;20337;-84
2023/08/14 03:54:57;;;;;;;10.80;9.80;;;17.00;99.90;;;;;;6211933;23;20090;-82
2023/08/14 03:57:23;;;;;;;11.35;9.77;;;16.90;99.90;;;;;;6185223;23;20088;-82
2023/08/14 03:59:48;;;;;;;10.15;9.15;;;16.90;99.90;;;;;;6212327;23;20005;-82
2023/08/14 04:02:14;;;;;;;11.43;9.90;;;16.90;99.90;;;;;;6211971;23;20439;-82
2023/08/14 04:04:40;;;;;;;10.63;8.90;;;16.90;99.90;;;;;;6185465;23;20020;-82
2023/08/14 04:07:05;;;;;;;9.80;8.90;;;16.90;99.90;;;;;;6212153;23;20001;-81
2023/08/14 04:09:31;;;;;;;10.63;9.55;;;16.90;99.90;;;;;;6211722;23;20441;-82
2023/08/14 04:11:56;;;;;;;11.00;9.82;;;16.80;99.90;;;;;;6212443;23;19997;-82
2023/08/14 04:14:23;;;;;;;9.82;8.82;;;16.80;99.90;;;;;;6211977;23;20058;-83
2023/08/14 04:16:49;;;;;;;13.45;9.38;;;16.80;99.90;;;;;;6212238;23;20028;-82
2023/08/14 04:19:17;;;;;;;10.50;8.90;;;16.90;99.90;;;;;;6211577;23;20079;-82
2023/08/14 04:21:43;;;;;;;10.43;9.32;;;16.90;99.90;;;;;;6212225;23;20072;-83
2023/08/14 04:24:09;;;;;;;9.07;8.18;;;16.80;99.90;;;;;;6211514;23;20013;-83
2023/08/14 04:26:36;;;;;;;9.45;8.65;;;16.80;99.90;;;;;;6212194;23;20087;-82
2023/08/14 04:29:03;;;;;;;9.10;8.20;;;16.80;99.90;;;;;;6211940;23;20024;-83
2023/08/14 04:31:29;;;;;;;10.18;7.95;;;16.80;99.90;;;;;;6211755;23;20004;-82
2023/08/14 04:33:55;;;;;;;9.57;8.63;;;16.80;99.90;;;;;;6211972;23;19997;-82
2023/08/14 04:36:21;;;;;;;12.30;9.45;;;16.80;99.90;;;;;;6211630;23;19996;-83
2023/08/14 04:38:46;;;;;;;9.95;9.05;;;16.80;99.90;;;;;;6211238;23;20367;-83
2023/08/14 04:41:12;;;;;;;10.30;8.30;;;16.80;99.90;;;;;;6211703;23;20079;-82
2023/08/14 04:43:37;;;;;;;11.98;9.20;;;16.80;99.90;;;;;;6211711;23;20001;-82
2023/08/14 04:46:10;;;;;;;10.43;8.68;;;16.80;99.90;;;;;;6211612;23;20005;-82
2023/08/14 04:48:35;;;;;;;12.00;10.25;;;16.80;99.90;;;;;;6211584;23;20443;-82
2023/08/14 04:51:01;;;;;;;9.60;8.30;;;16.90;99.90;;;;;;6211996;23;19996;-82
2023/08/14 04:53:26;;;;;;;10.00;9.00;;;16.90;99.90;;;;;;6211721;23;19997;-82
2023/08/14 04:55:52;;;;;;;10.85;9.93;;;16.90;99.90;;;;;;6211594;23;20386;-82
2023/08/14 04:58:17;;;;;;;11.23;8.27;;;17.00;99.90;;;;;;6211268;23;20423;-82
2023/08/14 05:00:43;;;;;;;13.00;10.88;;;17.10;99.90;;;;;;6211844;23;20005;-82
2023/08/14 05:03:08;;;;;;;10.40;9.48;;;17.10;99.90;;;;;;6211574;23;20000;-82
2023/08/14 05:05:34;;;;;;;12.15;10.95;;;17.10;99.90;;;;;;6211461;23;20070;-83
2023/08/14 05:07:59;;;;;;;13.77;11.50;;;17.20;99.90;;;;;;6211584;23;19996;-82
2023/08/14 05:10:25;;;;;;;12.13;10.90;;;17.20;99.90;;;;;;6211386;23;20419;-83
2023/08/14 05:12:51;;;;;;;10.90;9.55;;;17.20;99.90;;;;;;6184945;23;20009;-82
2023/08/14 05:15:16;;;;;;;10.35;9.35;;;17.30;99.90;;;;;;6211043;23;20039;-82
2023/08/14 05:17:42;;;;;;;11.32;9.88;;;17.30;99.90;;;;;;6211606;23;20036;-82
2023/08/14 05:20:09;;;;;;;10.35;9.23;;;17.40;99.90;;;;;;6184941;23;20431;-82
2023/08/14 05:22:34;;;;;;;10.35;9.25;;;17.50;99.90;;;;;;6210859;23;20014;-83
2023/08/14 05:25:00;;;;;;;11.10;10.00;;;17.50;99.90;;;;;;6211702;23;20075;-83
2023/08/14 05:27:26;;;;;;;11.05;9.43;;;17.60;99.90;;;;;;6211368;23;20095;-83
2023/08/14 05:29:51;;;;;;;14.88;11.77;;;17.60;99.90;;;;;;6211449;23;20005;-82
2023/08/14 05:32:17;;;;;;;12.82;11.52;;;17.70;99.90;;;;;;6211321;23;20022;-83
2023/08/14 05:34:42;;;;;;;12.80;11.57;;;17.70;99.90;;;;;;6211623;23;20403;-83
2023/08/14 05:37:08;;;;;;;13.48;12.13;;;17.80;99.90;;;;;;6210991;23;20063;-82
2023/08/14 05:39:34;;;;;;;15.93;13.52;;;17.90;99.90;;;;;;6211460;23;20371;-84
2023/08/14 05:41:59;;;;;;;13.93;12.57;;;18.00;99.90;;;;;;6211878;23;20039;-83
2023/08/14 05:44:25;;;;;;;11.73;10.55;;;18.00;99.90;;;;;;6210653;23;20008;-82
2023/08/14 05:46:50;;;;;;;12.93;10.10;;;18.10;99.90;;;;;;6211562;23;20001;-82
2023/08/14 05:49:16;;;;;;;14.13;12.73;;;18.20;99.90;;;;;;6210968;23;20434;-83
2023/08/14 05:51:43;;;;;;;11.90;10.75;;;18.30;99.90;;;;;;6210884;23;20000;-83
2023/08/14 05:54:08;;;;;;;12.65;11.10;;;18.40;99.90;;;;;;6211232;23;20043;-83
2023/08/14 05:56:34;;;;;;;16.02;13.88;;;18.50;99.90;;;;;;6211242;23;20713;-83
2023/08/14 05:59:00;;;;;;;17.40;13.07;;;18.60;99.90;;;;;;6211350;23;20072;-82
2023/08/14 06:01:26;;;;;;;12.52;11.05;;;18.60;99.90;;;;;;6211181;23;20007;-84
2023/08/14 06:03:52;;;;;;;13.10;11.93;;;18.70;99.90;;;;;;6211306;23;20334;-82
2023/08/14 06:06:17;;;;;;;12.63;11.32;;;18.80;99.90;;;;;;6211011;23;19996;-76
2023/08/14 06:08:43;;;;;;;14.05;12.65;;;18.80;99.90;;;;;;6211499;23;20099;-76
2023/08/14 06:11:08;;;;;;;12.25;11.05;;;18.80;99.90;;;;;;6211387;23;20072;-76
2023/08/14 06:13:34;;;;;;;13.73;12.43;;;18.90;99.90;;;;;;6211005;23;20009;-76
2023/08/14 06:16:00;;;;;;;13.20;11.70;;;18.90;99.90;;;;;;6211290;23;20020;-76
2023/08/14 06:18:25;;;;;;;16.50;11.25;;;19.00;99.90;;;;;;6210807;23;19996;-75
2023/08/14 06:20:51;;;;;;;14.07;11.10;;;19.00;99.90;;;;;;6210737;23;20001;-75
2023/08/14 06:23:17;;;;;;;18.08;12.32;;;19.00;99.90;;;;;;6210808;23;19996;-76
2023/08/14 06:25:42;;;;;;;11.30;10.27;;;19.10;99.90;;;;;;6211126;23;20019;-75
2023/08/14 06:28:08;;;;;;;13.63;12.18;;;19.10;99.90;;;;;;6211055;23;20072;-76
2023/08/14 06:30:34;;;;;;;12.88;11.48;;;19.20;99.90;;;;;;6210737;23;20434;-75
2023/08/14 06:33:01;;;;;;;16.55;12.43;;;19.20;99.90;;;;;;6211229;23;19997;-75
2023/08/14 06:35:27;;;;;;;21.48;13.52;;;19.30;99.90;;;;;;6210514;23;20005;-75
2023/08/14 06:37:52;;;;;;;13.00;11.68;;;19.30;99.90;;;;;;6211124;23;20098;-75
2023/08/14 06:40:18;;;;;;;14.35;12.90;;;19.40;99.90;;;;;;6210798;23;20397;-75
2023/08/14 06:42:43;;;;;;;14.73;13.20;;;19.40;99.90;;;;;;6211034;23;20004;-75
2023/08/14 06:45:09;;;;;;;14.65;13.18;;;19.40;99.90;;;;;;6210879;23;20469;-75
2023/08/14 06:47:43;;;;;;;15.27;13.77;;;19.50;99.90;;;;;;6210702;23;20303;-75
2023/08/14 06:50:09;;;;;;;13.40;12.05;;;19.50;99.90;;;;;;6210494;23;20000;-75
2023/08/14 06:52:35;;;;;;;13.88;12.63;;;19.60;99.90;;;;;;6211030;23;20078;-75
2023/08/14 06:55:00;;;;;;;16.85;15.07;;;19.60;99.90;;;;;;6211454;23;20028;-75
2023/08/14 06:57:26;;;;;;;16.23;14.63;;;19.70;99.90;;;;;;6212343;23;20008;-75
2023/08/14 06:59:52;;;;;;;16.08;14.50;;;19.70;99.90;;;;;;6213009;23;20016;-75
2023/08/14 07:02:17;;;;;;;14.95;12.75;;;19.80;99.90;;;;;;6211722;23;20039;-75
2023/08/14 07:04:43;;;;;;;17.50;14.18;;;19.80;99.90;;;;;;6208647;23;20058;-75
2023/08/14 07:07:08;;;;;;;16.67;15.10;;;19.90;99.90;;;;;;6211945;23;20004;-75
2023/08/14 07:09:34;;;;;;;15.57;13.85;;;19.90;99.90;;;;;;6211829;23;20090;-75
2023/08/14 07:11:59;;;;;;;16.60;13.43;;;20.00;99.90;;;;;;6212070;23;20087;-75
2023/08/14 07:14:25;;;;;;;15.63;14.07;;;20.10;99.90;;;;;;6212034;23;20000;-76
2023/08/14 07:16:51;;;;;;;18.08;14.20;;;20.20;99.90;;;;;;6211540;23;20430;-75
2023/08/14 07:19:17;;;;;;;14.98;13.43;;;20.40;99.90;;;;;;6210326;23;20079;-75
2023/08/14 07:21:44;;;;;;;13.93;12.18;;;20.50;99.90;;;;;;6211461;23;20004;-75
2023/08/14 07:24:09;;;;;;;15.88;13.43;;;20.60;99.90;;;;;;6211710;23;20060;-75
2023/08/14 07:26:35;;;;;;;13.68;11.65;;;20.70;99.90;;;;;;6210575;23;20533;-75
2023/08/14 07:29:00;;;;;;;17.15;12.30;;;20.70;99.90;;;;;;6185518;23;20001;-75
2023/08/14 07:31:26;;;;;;;13.65;9.73;;;20.80;99.90;;;;;;6211140;23;19996;-75
2023/08/14 07:33:51;;;;;;;16.65;11.05;;;20.90;99.90;;;;;;6211390;23;20075;-76
2023/08/14 07:36:17;;;;;;;14.13;9.48;;;21.10;99.90;;;;;;6211725;23;20473;-75
2023/08/14 07:38:43;;;;;;;15.30;8.77;;;21.20;99.90;;;;;;6212159;23;20104;-76
2023/08/14 07:41:09;;;;;;;14.82;9.88;;;21.20;99.90;;;;;;6211997;23;19996;-75
2023/08/14 07:43:34;;;;;;;16.83;8.70;;;21.30;99.90;;;;;;6211567;23;20000;-75
2023/08/14 07:46:00;;;;;;;14.75;10.77;;;21.30;99.90;;;;;;6212065;23;20050;-76
2023/08/14 07:48:25;;;;;;;13.02;9.90;;;21.30;99.90;;;;;;6211025;23;19997;-76
2023/08/14 07:50:52;;;;;;;12.70;8.82;;;21.30;99.90;;;;;;6211716;23;20434;-75
2023/08/14 07:53:18;;;;;;;11.65;9.88;;;21.30;99.90;;;;;;6211442;23;20023;-75
2023/08/14 07:55:44;;;;;;;13.32;9.95;;;21.40;99.90;;;;;;6211778;23;20008;-75
2023/08/14 07:58:09;;;;;;;15.88;10.13;;;21.50;99.90;;;;;;6211757;23;20076;-75
2023/08/14 08:00:35;;;;;;;14.48;8.55;;;21.60;99.90;;;;;;6211272;23;20374;-75
2023/08/14 08:03:00;;;;;;;13.93;9.82;;;21.60;99.90;;;;;;6210872;23;20511;-75
2023/08/14 08:05:26;;;;;;;12.77;10.10;;;21.60;99.90;;;;;;6211127;23;20001;-76
2023/08/14 08:07:52;;;;;;;11.93;8.38;;;21.70;99.90;;;;;;6211400;23;20012;-75
2023/08/14 08:10:17;;;;;;;15.77;9.38;;;21.60;99.90;;;;;;6211287;23;20445;-75
2023/08/14 08:12:43;;;;;;;11.40;7.97;;;21.60;99.90;;;;;;6184843;23;20008;-76
2023/08/14 08:15:09;;;;;;;16.30;8.63;;;21.60;99.90;;;;;;6211401;23;20040;-76
2023/08/14 08:17:35;;;;;;;12.35;7.30;;;21.70;99.90;;;;;;6210861;23;20096;-75
2023/08/14 08:20:02;;;;;;;11.52;7.18;;;21.70;99.90;;;;;;6211803;23;20028;-76
2023/08/14 08:22:28;;;;;;;11.90;7.03;;;21.80;99.90;;;;;;6211628;23;20000;-76
2023/08/14 08:24:53;;;;;;;11.35;7.38;;;21.80;99.90;;;;;;6211183;23;20087;-76
2023/08/14 08:27:19;;;;;;;21.65;8.35;;;21.90;99.90;;;;;;6210383;23;20004;-75
2023/08/14 08:29:45;;;;;;;12.05;8.07;;;22.00;99.90;;;;;;6211375;23;20386;-76
2023/08/14 08:32:10;;;;;;;11.02;6.97;;;22.00;99.90;;;;;;6210344;23;20319;-75
2023/08/14 08:34:36;;;;;;;12.32;6.38;;;22.10;99.90;;;;;;6211168;23;20070;-76
2023/08/14 08:37:01;;;;;;;9.35;5.72;;;22.10;99.90;;;;;;6211582;23;20015;-74
2023/08/14 08:39:27;;;;;;;10.82;5.38;;;22.20;99.90;;;;;;6211420;23;20005;-75
2023/08/14 08:41:55;;;;;;;7.65;5.13;;;22.20;99.90;;;;;;6211420;23;20083;-75
2023/08/14 08:44:31;;;;;;;11.85;6.65;;;22.20;99.90;;;;;;6210603;23;20013;-75
2023/08/14 08:47:10;;;;;;;11.25;5.53;;;22.30;99.90;;;;;;6209203;23;20066;-75
2023/08/14 08:49:36;;;;;;;9.63;5.55;;;22.30;99.90;;;;;;6210733;23;20001;-75
2023/08/14 08:52:03;;;;;;;8.73;5.15;;;22.40;99.90;;;;;;6211146;23;20004;-75
2023/08/14 08:54:30;;;;;;;9.55;4.10;;;22.40;99.90;;;;;;6187881;23;20067;-75
2023/08/14 08:56:56;;;;;;;6.53;4.57;;;22.50;99.90;;;;;;6211447;23;20018;-75
2023/08/14 08:59:23;;;;;;;11.90;5.57;;;22.50;99.90;;;;;;6209821;23;20036;-75
2023/08/14 09:01:49;;;;;;;7.45;3.70;;;22.60;99.90;;;;;;6211249;23;20001;-75
2023/08/14 09:04:15;;;;;;;9.30;3.50;;;22.60;99.90;;;;;;6210601;23;20079;-75
2023/08/14 09:06:40;;;;;;;9.20;3.60;;;22.70;99.90;;;;;;6210946;23;20000;-75
2023/08/14 09:09:07;;;;;;;6.78;2.60;;;22.70;99.90;;;;;;6210689;23;20032;-75
2023/08/14 09:11:33;;;;;;;4.97;2.63;;;22.80;99.90;;;;;;6210934;23;20005;-75
2023/08/14 09:13:59;;;;;;;6.93;3.03;;;22.90;99.90;;;;;;6210764;23;20007;-75
2023/08/14 09:16:27;;;;;;;8.57;3.40;;;22.90;99.90;;;;;;6210338;23;20004;-76
2023/08/14 09:18:57;;;;;;;7.70;2.63;;;23.00;99.90;;;;;;6210733;23;20383;-76
2023/08/14 09:21:24;;;;;;;6.88;2.75;;;23.10;99.90;;;;;;6210673;23;20012;-76
2023/08/14 09:23:49;;;;;;;7.65;3.00;;;23.10;99.90;;;;;;6210618;23;20005;-76
2023/08/14 09:26:15;;;;;;;8.82;2.70;;;23.20;99.90;;;;;;6210317;23;20058;-76
2023/08/14 09:28:41;;;;;;;10.13;3.17;;;23.20;99.90;;;;;;6210422;23;20000;-76
2023/08/14 09:31:11;;;;;;;9.43;3.55;;;23.30;99.90;;;;;;6210458;23;19997;-76
2023/08/14 09:33:39;;;;;;;10.02;3.70;;;23.30;99.90;;;;;;6210451;23;19997;-75
2023/08/14 09:36:05;;;;;;;8.23;3.38;;;23.40;99.90;;;;;;6210654;23;20372;-76
2023/08/14 09:38:31;;;;;;;11.63;3.45;;;23.50;99.90;;;;;;6210973;23;20004;-76
2023/08/14 09:40:58;;;;;;;10.07;3.00;;;23.60;99.90;;;;;;6210811;23;20024;-77
2023/08/14 09:43:24;;;;;;;5.97;2.65;;;23.70;99.80;;;;;;6210024;23;20075;-77
2023/08/14 09:45:51;;;;;;;5.97;2.70;;;23.70;99.30;;;;;;6210922;23;20016;-77
2023/08/14 09:48:17;;;;;;;8.82;2.30;;;23.80;99.10;;;;;;6209170;23;20004;-77
2023/08/14 09:50:51;;;;;;;7.35;2.53;;;23.80;99.00;;;;;;6209661;23;20032;-76
2023/08/14 09:53:17;;;;;;;5.47;2.22;;;23.90;98.80;;;;;;6210494;23;20000;-77
2023/08/14 09:55:43;;;;;;;6.88;3.03;;;24.00;98.80;;;;;;6208748;23;20041;-77
2023/08/14 09:58:09;;;;;;;6.15;2.60;;;24.00;98.50;;;;;;6209631;23;20001;-77
2023/08/14 10:00:37;;;;;;;9.93;2.97;;;24.10;98.40;;;;;;6209460;23;20005;-79
2023/08/14 10:03:06;;;;;;;4.65;2.20;;;24.10;98.10;;;;;;6210150;23;20000;-78
2023/08/14 10:05:33;;;;;;;8.02;2.88;;;24.20;98.00;;;;;;6209497;23;20100;-77
2023/08/14 10:08:00;;;;;;;6.20;2.63;;;24.30;97.70;;;;;;6205818;23;20008;-77
2023/08/14 10:10:30;;;;;;;9.30;2.47;;;24.40;97.70;;;;;;6208372;23;20399;-77
2023/08/14 10:12:57;;;;;;;6.65;2.08;;;24.40;97.40;;;;;;6207117;23;20457;-78
2023/08/14 10:15:31;;;;;;;8.50;2.08;;;24.30;97.20;;;;;;6207542;23;20091;-78
2023/08/14 10:17:59;;;;;;;4.53;2.30;;;24.40;97.00;;;;;;6210232;23;20067;-78
2023/08/14 10:20:27;;;;;;;7.22;1.90;;;24.50;96.70;;;;;;6211503;23;20370;-78
2023/08/14 10:22:53;;;;;;;3.67;1.90;;;24.50;96.90;;;;;;6210117;23;20203;-78
2023/08/14 10:25:22;;;;;;;5.10;2.30;;;24.70;96.90;;;;;;6209124;23;20039;-77
2023/08/14 10:27:48;;;;;;;4.72;2.13;;;24.80;96.60;;;;;;6211167;23;20001;-77
2023/08/14 10:30:14;;;;;;;6.18;1.65;;;24.90;96.20;;;;;;6211760;23;19997;-77
2023/08/14 10:32:40;;;;;;;4.38;1.30;;;24.80;95.90;;;;;;6213645;23;20011;-78
2023/08/14 10:35:08;;;;;;;5.40;1.45;;;24.90;95.50;;;;;;6211631;23;20009;-78
2023/08/14 10:37:47;;;;;;;4.72;1.35;;;24.90;95.40;;;;;;6236564;23;20366;-78
2023/08/14 10:40:20;;;;;;;2.67;1.30;;;24.90;94.60;;;;;;6212992;23;20004;-78
2023/08/14 10:42:55;;;;;;;4.63;1.85;;;24.90;94.30;;;;;;6211513;23;20162;-79
2023/08/14 10:45:22;;;;;;;7.20;1.40;;;25.00;94.30;;;;;;6211387;23;20088;-78
2023/08/14 10:47:50;;;;;;;3.45;1.48;;;25.00;94.20;;;;;;6212987;23;20001;-78
2023/08/14 10:50:34;;;;;;;3.70;1.50;;;25.10;93.80;;;;;;6235644;23;20028;-78
2023/08/14 10:53:03;;;;;;;5.07;1.50;;;25.10;93.50;;;;;;6211539;23;20009;-79
2023/08/14 10:55:45;;;;;;;4.13;1.35;;;25.10;93.60;;;;;;6212508;23;20027;-77
2023/08/14 10:58:31;;;;;;;4.05;1.17;;;25.10;93.20;;;;;;6213434;23;20004;-78
2023/08/14 11:01:02;;;;;;;3.70;1.48;;;25.10;93.00;;;;;;6213369;23;20004;-78
2023/08/14 11:03:28;;;;;;;4.90;1.80;;;25.10;93.20;;;;;;6212195;23;20331;-78
2023/08/14 11:05:54;;;;;;;5.68;1.30;;;25.20;93.30;;;;;;6211984;23;20063;-79
2023/08/14 11:08:21;;;;;;;4.18;1.77;;;25.20;92.90;;;;;;6212019;23;20005;-80
2023/08/14 11:10:49;;;;;;;5.30;1.48;;;25.20;92.60;;;;;;6184402;23;20027;-78
2023/08/14 11:13:14;;;;;;;5.03;1.38;;;25.20;92.50;;;;;;6212200;23;20378;-77
2023/08/14 11:15:41;;;;;;;5.03;1.45;;;25.30;92.70;;;;;;6186233;23;20008;-77
2023/08/14 11:18:09;;;;;;;4.80;1.30;;;25.30;92.60;;;;;;6212696;23;20009;-77
2023/08/14 11:20:37;;;;;;;3.17;1.58;;;25.40;92.50;;;;;;6211921;23;20037;-78
2023/08/14 11:23:03;;;;;;;4.63;1.60;;;25.40;92.40;;;;;;6212261;23;19997;-78
2023/08/14 11:25:30;;;;;;;3.60;1.40;;;25.40;92.20;;;;;;6212107;23;20013;-78
2023/08/14 11:27:55;;;;;;;3.55;1.27;;;25.50;92.00;;;;;;6213239;23;19997;-78
2023/08/14 11:30:26;;;;;;;6.28;1.77;;;25.50;92.10;;;;;;6212621;23;20000;-78
2023/08/14 11:32:52;;;;;;;3.70;1.58;;;25.60;91.90;;;;;;6186551;23;20058;-77
2023/08/14 11:35:18;;;;;;;4.28;1.35;;;25.60;91.80;;;;;;6185860;23;20422;-77
2023/08/14 11:37:47;;;;;;;5.28;2.67;;;25.60;91.70;;;;;;6186299;23;20009;-77
2023/08/14 11:40:17;;;;;;;5.55;1.67;;;25.60;91.70;;;;;;6212317;23;20000;-78
2023/08/14 11:42:43;;;;;;;5.82;2.58;;;25.60;91.50;;;;;;6212672;23;20001;-78
2023/08/14 11:45:09;;;;;;;5.95;2.58;;;25.60;91.40;;;;;;6186061;23;20009;-79
2023/08/14 11:47:37;;;;;;;2.70;1.20;;;25.70;91.30;;;;;;6211552;23;20457;-78
2023/08/14 11:50:07;;;;;;;5.47;1.80;;;25.70;91.30;;;;;;6185199;23;20008;-78
2023/08/14 11:52:35;;;;;;;5.95;1.80;;;25.70;91.00;;;;;;6211267;23;20054;-78
2023/08/14 11:55:01;;;;;;;3.80;1.23;;;25.70;91.20;;;;;;6211369;23;20024;-76
2023/08/14 11:57:32;;;;;;;7.10;1.50;;;25.70;91.10;;;;;;6212284;23;19997;-75
2023/08/14 11:59:59;;;;;;;6.80;1.58;;;25.70;90.90;;;;;;6212305;23;20004;-77
2023/08/14 12:02:26;;;;;;;5.45;1.20;;;25.70;90.60;;;;;;6211589;23;20461;-77
2023/08/14 12:04:59;;;;;;;5.07;1.55;;;25.70;90.80;;;;;;6211811;23;20092;-76
2023/08/14 12:07:26;;;;;;;3.28;1.30;;;25.70;90.50;;;;;;6211495;23;20007;-76
2023/08/14 12:09:56;;;;;;;3.40;1.42;;;25.70;90.60;;;;;;6212142;23;19997;-76
2023/08/14 12:12:22;;;;;;;4.78;1.17;;;25.80;90.70;;;;;;6211274;23;20011;-76
2023/08/14 12:14:49;;;;;;;6.82;1.48;;;25.70;90.80;;;;;;6211908;23;20012;-77
2023/08/14 12:17:18;;;;;;;4.80;1.23;;;25.80;91.10;;;;;;6211790;23;20496;-76
2023/08/14 12:19:52;;;;;;;6.68;1.13;;;25.80;91.10;;;;;;6212766;23;20008;-76
2023/08/14 12:22:22;;;;;;;4.82;1.92;;;25.80;91.20;;;;;;6211304;23;20011;-76
2023/08/14 12:24:49;;;;;;;6.85;2.08;;;25.90;90.90;;;;;;6211403;23;20039;-76
2023/08/14 12:27:26;;;;;;;2.85;1.00;;;25.90;90.70;;;;;;6209575;23;20039;-76
2023/08/14 12:29:53;;;;;;;5.38;1.27;;;26.00;90.50;;;;;;6210693;23;20011;-77
2023/08/14 12:32:20;;;;;;;3.05;1.30;;;26.00;90.50;;;;;;6210444;23;20071;-76
2023/08/14 12:34:45;;;;;;;2.65;1.08;;;26.00;90.40;;;;;;6211375;23;20005;-77
2023/08/14 12:37:14;;;;;;;3.85;1.13;;;26.10;90.50;;;;;;6185029;23;20426;-77
2023/08/14 12:39:40;;;;;;;6.00;1.30;;;26.20;90.50;;;;;;6212326;23;20004;-77